Townsend, Washington
Current Conditions -  °F | °C
As of 9:20 PM on Saturday 20 Dec 2014 (Local Time) from KNUW Reporting Station
Overcast Overcast  
Wind Chill: 54°   Ceiling: 3400
Heat Index: 54°   Visibility: 10mi
Dew Point: 50°   Wind: 10mph
Humidity: 86%   Direction: 170°S
Pressure: 29.42"   Gusts: NA
Location:  48.026°N, 122.859°W
Report Text: KNUW 210520Z 17009KT 10SM FEW011 SCT024 OVC034 12/10 A2942 RMK AO2 RAB0459E19 P0000 T01220100 VISNO E $
Loading
Personal Weather Stations






























Interactive Weather Map New forecast layout! Learn more

10-Day Weather Forecast

Advertisements
Track Severe Weather on mobile